Weather Models
Both GFS & NAM
00z 06z 12z 18z
24hr Precip
00z 06z 12z 18z
36hr Simulated radar
00z 06z 12z 18z
SKEWT Soundings
00z 12z
Current Conditions (Updated 2:55am on 9/27/16)
Temperature
 70°
-0.07
70°  
69°  
0
10
20
30
40
50
60
70
80
90
100
Dew Point
64°
64°  
59°  
-20
-10
0
10
20
30
40
50
60
70
80
Heat Index
74°
74°  
73°  
30
40
50
60
70
80
90
100
110
120
130
Heat Index
Humidity
81%
82% 
67% 
0
10
20
30
40
50
60
70
80
90
100
Barometer
29.96
   Steady
29.99  
29.96  
28.00
28.30
28.60
28.90
29.20
29.50
29.80
30.10
30.40
30.70
31.00
Temperature
Dew Point
Humidity
Pressure
Wind
4mph
 SE
Daily Rain
.00
.05
.10
.15
.20
.25
.30
.35
.40
.45
.50
Rain Today
 0.01" 
Month Rain
0.00
0.20
0.40
0.60
0.80
1.00
1.20
1.40
1.60
1.80
2.00
Month Rain
 1.45" 
Year Rain
0.00
5.00
10.00
15.00
20.00
25.00
30.00
35.00
40.00
45.00
50.00
Year Rain
 29.32" 
Sun & Moon Data
Sunrise 6:55am
Sunset 6:50pm
Moonrise 3:29am
Moonset 5:13pm
Moon % 21%
Other Rain Data
Past Hour 0.00 Past 24 Hours 0.01
Past 3 Hours 0.01 Past 7 Days 0.05
Past 6 Hours 0.01
Cloud Height
1521


Current Front Map
Current Satellite map
7 Day Forecast
NWS Forecast for Philadelphia PA
National Weather Service Forecast for: Philadelphia PA
Issued by: National Weather Service Philadelphia, PA
Updated: 12:34 am EDT Sep 27, 2016

Philadelphia
 
Overnight

Overnight: Showers likely, mainly after 3am.  Cloudy, with a low around 63. South wind around 8 mph.  Chance of precipitation is 60%. New precipitation amounts between a tenth and quarter of an inch possible.
Showers
Likely
Tuesday

Tuesday: Showers likely, mainly before 8am.  Cloudy, then gradually becoming mostly sunny, with a high near 74. West wind around 9 mph.  Chance of precipitation is 60%. New precipitation amounts of less than a tenth of an inch possible.
Showers
Likely then
Partly Sunny
Tuesday
Night
Tuesday Night: Partly cloudy, with a low around 53. South wind around 5 mph becoming calm  in the evening.
Partly Cloudy

Wednesday

Wednesday: A chance of showers, mainly after 2pm.  Mostly sunny, with a high near 74. East wind around 7 mph.  Chance of precipitation is 30%. New precipitation amounts between a tenth and quarter of an inch possible.
Chance
Showers
Wednesday
Night
Wednesday Night: Showers likely, mainly after 8pm.  Mostly cloudy, with a low around 62. East wind around 9 mph.  Chance of precipitation is 70%. New precipitation amounts between three quarters and one inch possible.
Showers
Likely
Thursday

Thursday: Showers likely.  Cloudy, with a high near 71. Chance of precipitation is 70%. New precipitation amounts between three quarters and one inch possible.
Showers
Likely
Thursday
Night
Thursday Night: Showers likely.  Mostly cloudy, with a low around 61. Chance of precipitation is 60%.
Showers
Likely
Friday

Friday: A chance of showers.  Mostly cloudy, with a high near 71. Chance of precipitation is 50%.
Chance
Showers
Friday
Night
Friday Night: A chance of showers.  Mostly cloudy, with a low around 60. Chance of precipitation is 40%.
Chance
Showers
Lo 63 °F Hi 74 °F Lo 53 °F Hi 74 °F Lo 62 °F Hi 71 °F Lo 61 °F Hi 71 °F Lo 60 °F

Short Term Forecast
 

Overnight
 
Showers likely, mainly after 3am. Cloudy, with a low around 63. South wind around 8 mph. Chance of precipitation is 60%. New precipitation amounts between a tenth and quarter of an inch possible.
Tuesday
 
Showers likely, mainly before 8am. Cloudy, then gradually becoming mostly sunny, with a high near 74. West wind around 9 mph. Chance of precipitation is 60%. New precipitation amounts of less than a tenth of an inch possible.
Tuesday Night
 
Partly cloudy, with a low around 53. South wind around 5 mph becoming calm in the evening.
Wednesday
 
A chance of showers, mainly after 2pm. Mostly sunny, with a high near 74. East wind around 7 mph. Chance of precipitation is 30%. New precipitation amounts between a tenth and quarter of an inch possible.
Wednesday Night
 
Showers likely, mainly after 8pm. Mostly cloudy, with a low around 62. East wind around 9 mph. Chance of precipitation is 70%. New precipitation amounts between three quarters and one inch possible.
Thursday
 
Showers likely. Cloudy, with a high near 71. Chance of precipitation is 70%. New precipitation amounts between three quarters and one inch possible.
Thursday Night
 
Showers likely. Mostly cloudy, with a low around 61. Chance of precipitation is 60%.
Friday
 
A chance of showers. Mostly cloudy, with a high near 71. Chance of precipitation is 50%.
Friday Night
 
A chance of showers. Mostly cloudy, with a low around 60. Chance of precipitation is 40%.
Saturday
 
A chance of showers. Partly sunny, with a high near 73. Chance of precipitation is 30%.
Saturday Night
 
A chance of showers. Partly cloudy, with a low around 58. Chance of precipitation is 30%.
Sunday
 
Mostly sunny, with a high near 74.
Sunday Night
 
Mostly cloudy, with a low around 58.
Monday
 
Partly sunny, with a high near 73.

 

Forecast from NOAA-NWS for Philadelphia PA.

Area Weather Current Conditions
Nearby METAR Reports

KPHL - Philadelphia, Pennsylvania
Updated: Tue, 27-Sep-2016 2:02am EDT
Overcast
Overcast
 Wind from SW
Wind: SW 10 mph , 17 km/h
Temperature: 70°F , 21°C
Dew Point: 64°F , 18°C
Humidity: 83%
Barometer: 29.95 inHg , 1014.2 hPa
Clouds: Overcast
Visibility: 10 miles , 16 km
Cloud details: Mostly Cloudy 3000 ft
Mostly Cloudy 4500 ft
Overcast 6000 ft
2016/09/27 06:02 KPHL 270602Z 22009KT 10SM BKN030 BKN045 OVC060 21/18 A2995 RMK AO2 T02060178
KMPO - Mt. Pocono, Pennsylvania
Updated: Tue, 27-Sep-2016 2:53am EDT
Overcast
Overcast
 Wind from W
Wind: W 7 mph , 11 km/h
Temperature: 55°F , 13°C
Dew Point: 55°F , 13°C
Humidity: 100%
Barometer: 29.94 inHg , 1013.9 hPa
Clouds: Overcast
Visibility: 7 miles , 11 km
Cloud details: Overcast 300 ft
2016/09/27 06:53 KMPO 270653Z AUTO 26006KT 7SM OVC003 13/13 A2994 RMK AO2 RAE00 SLP137 P0000 T01330128 $
 
KACY - Atlantic City, New Jersey
Updated: Tue, 27-Sep-2016 2:17am EDT
Overcast
Overcast
 Wind from SW
Wind: SW 10 mph , 17 km/h
Temperature: 72°F , 22°C
Dew Point: 66°F , 19°C
Humidity: 83%
Barometer: 29.95 inHg , 1014.2 hPa
Clouds: Overcast
Visibility: 10 miles , 16 km
Cloud details: Few Clouds 1200 ft
Partly Cloudy 2800 ft
Overcast 3800 ft
2016/09/27 06:17 KACY 270617Z 22009KT 10SM FEW012 SCT028 OVC038 22/19 A2995 RMK AO2 T02170194
KMIV - Millville, New Jersey
Updated: Tue, 27-Sep-2016 1:54am EDT
Overcast
Overcast
 Wind from SW
Wind: SW 5 mph , 7 km/h
Temperature: 70°F , 21°C
Dew Point: 68°F , 20°C
Humidity: 94%
Barometer: 29.96 inHg , 1014.6 hPa
Clouds: Overcast
Visibility: 10 miles , 16 km
Cloud details: Overcast 3700 ft
2016/09/27 05:54 KMIV 270554Z AUTO 22004KT 10SM OVC037 21/20 A2996 RMK AO2 RAE18 SLP143 P0000 60002 T02060200 10211 20200 56019
 
KWWD - Wildwood, New Jersey
Updated: Tue, 27-Sep-2016 1:56am EDT

 Wind from SSW
Wind: SSW 14 mph , 22 km/h, Gust: 18 mph , 30 km/h
Temperature: 72°F , 22°C
Dew Point: 66°F , 19°C
Humidity: 83%
Barometer: 29.96 inHg , 1014.6 hPa
Visibility: 10 miles , 16 km
2016/09/27 05:56 KWWD 270556Z AUTO 20012G16KT 10SM 22/19 A2996 RMK AO2 RAE20 SLP146 P0000 60000 T02170194 10222 20211 56024 $
KDOV - Dover Afb, Delaware
Updated: Tue, 27-Sep-2016 1:58am EDT
Overcast
Overcast
 Wind from SSW
Wind: SSW 5 mph , 7 km/h
Temperature: 68°F , 20°C
Dew Point: 68°F , 20°C
Humidity: 100%
Barometer: 29.94 inHg , 1013.9 hPa
Clouds: Overcast
Visibility: 10 miles , 16 km
Cloud details: Overcast 3400 ft
2016/09/27 05:58 KDOV 270558Z AUTO 20004KT 10SM OVC034 20/20 A2994 RMK AO2 SLP142 60000 T01960196 10204 20196 57016 $
Severe Weather Map
Recent Forum Post
[Philadelphia] 102.7 last Saturday by JC August 20, 2016, 03:26:22 AM
[Philadelphia] 2015 -2016 Winter snow forecast by JC April 19, 2016, 09:42:40 AM
[Philadelphia] Latest Models on Weekend Storm (Photos) by JC January 23, 2016, 12:01:03 PM
[Philadelphia] Possible large snow storm for end of week ? by JC January 21, 2016, 09:17:47 AM
[Philadelphia] El Nino! by vicente6 September 16, 2015, 01:57:08 AM
[Philadelphia] Early prediction for this winter? by xyonist February 19, 2015, 06:27:46 PM
[Philadelphia] Snow Storm 1/26 by JC January 28, 2015, 10:33:24 AM
[Philadelphia] Next 7 days by JC January 22, 2015, 01:40:35 AM